Time;durP1;ratioP1;P1;durP2;ratioP2;P2;SDS_P1;SDS_P2;PMS_P1;PMS_P2;Temp;Humidity;BMP_temperature;BMP_pressure;BME280_temperature;BME280_humidity;BME280_pressure;Samples;Min_cycle;Max_cycle;Signal;HPM_P1;HPM_P2
2022/02/08 00:00:41;;;;;;;17.73;3.83;;;7.80;98.50;;;;;;5059162;28;20692;-86
2022/02/08 00:03:10;;;;;;;14.80;4.40;;;7.80;99.10;;;;;;5059074;28;20175;-85
2022/02/08 00:05:37;;;;;;;16.03;3.53;;;7.90;99.20;;;;;;5059243;28;20173;-86
2022/02/08 00:08:04;;;;;;;18.57;4.43;;;7.90;99.20;;;;;;5058433;28;20176;-85
2022/02/08 00:10:30;;;;;;;14.93;3.80;;;7.80;99.10;;;;;;5058212;28;20177;-86
2022/02/08 00:12:57;;;;;;;9.63;3.30;;;7.80;99.70;;;;;;5056465;28;20177;-85
2022/02/08 00:15:23;;;;;;;17.77;4.20;;;7.80;99.80;;;;;;5047752;28;20185;-85
2022/02/08 00:17:56;;;;;;;13.17;3.67;;;7.80;99.90;;;;;;5038703;28;20212;-87
2022/02/08 00:20:22;;;;;;;14.60;3.37;;;7.80;99.90;;;;;;5038063;28;20641;-85
2022/02/08 00:22:48;;;;;;;20.57;4.20;;;7.80;99.90;;;;;;5038786;28;20205;-84
2022/02/08 00:25:13;;;;;;;19.07;4.13;;;7.80;99.90;;;;;;5037365;28;20188;-85
2022/02/08 00:27:39;;;;;;;12.83;4.17;;;7.80;99.90;;;;;;5040094;28;20184;-84
2022/02/08 00:30:06;;;;;;;13.33;3.57;;;7.90;99.90;;;;;;5039038;28;20182;-86
2022/02/08 00:32:32;;;;;;;17.77;4.10;;;7.80;99.90;;;;;;5040324;28;20174;-85
2022/02/08 00:34:58;;;;;;;15.33;3.67;;;7.80;99.80;;;;;;5045241;28;20182;-87
2022/02/08 00:37:23;;;;;;;12.60;3.23;;;7.80;99.60;;;;;;5050506;28;20229;-85
2022/02/08 00:39:56;;;;;;;11.07;3.17;;;7.70;99.70;;;;;;5040148;28;20694;-87
2022/02/08 00:42:24;;;;;;;15.17;3.60;;;7.80;99.60;;;;;;5059310;28;20188;-88
2022/02/08 00:45:04;;;;;;;16.03;5.13;;;7.80;98.90;;;;;;5071415;28;20188;-85
2022/02/08 00:47:35;;;;;;;14.73;4.13;;;7.90;98.40;;;;;;5072697;28;20179;-87
2022/02/08 00:50:08;;;;;;;14.47;4.27;;;8.00;98.30;;;;;;5068345;28;20207;-86
2022/02/08 00:52:36;;;;;;;12.60;3.60;;;8.00;97.70;;;;;;5068525;28;20177;-86
2022/02/08 00:55:03;;;;;;;15.57;3.97;;;8.00;97.40;;;;;;5057278;28;20173;-84
2022/02/08 00:57:34;;;;;;;19.40;3.50;;;8.10;97.90;;;;;;5072332;28;20213;-84
2022/02/08 01:00:01;;;;;;;16.33;4.17;;;8.00;97.80;;;;;;5075151;28;20165;-85
2022/02/08 01:02:27;;;;;;;9.80;3.83;;;8.20;98.10;;;;;;5057518;28;20185;-85
2022/02/08 01:04:57;;;;;;;20.90;4.07;;;8.20;97.50;;;;;;5042458;28;20238;-84
2022/02/08 01:07:23;;;;;;;12.40;4.10;;;8.00;97.70;;;;;;5038260;28;20185;-85
2022/02/08 01:12:15;;;;;;;15.57;3.63;;;8.10;98.30;;;;;;5055823;28;20177;-85
2022/02/08 01:14:44;;;;;;;11.10;3.57;;;8.10;98.20;;;;;;5057959;28;20184;-85
2022/02/08 01:17:10;;;;;;;13.70;3.67;;;8.10;98.80;;;;;;5057935;28;20711;-86
2022/02/08 01:19:40;;;;;;;18.47;4.50;;;8.10;99.00;;;;;;5056394;28;20210;-85
2022/02/08 01:22:06;;;;;;;17.57;3.97;;;8.20;99.10;;;;;;5055989;28;20173;-85
2022/02/08 01:24:31;;;;;;;14.63;4.27;;;8.30;98.80;;;;;;5057060;28;20219;-85
2022/02/08 01:27:05;;;;;;;13.07;3.50;;;8.30;99.30;;;;;;5056747;28;20216;-86
2022/02/08 01:32:34;;;;;;;11.87;4.23;;;8.20;99.90;;;;;;5058941;28;20605;-84
2022/02/08 01:35:29;;;;;;;14.40;4.63;;;8.30;99.90;;;;;;5073834;28;20195;-85
2022/02/08 01:38:04;;;;;;;17.67;5.03;;;8.20;99.90;;;;;;5073944;28;20216;-86
2022/02/08 01:43:52;;;;;;;15.47;5.40;;;8.00;99.90;;;;;;5055837;28;20196;-86
2022/02/08 01:47:02;;;;;;;14.67;5.57;;;8.10;99.90;;;;;;5077772;28;20161;-84
2022/02/08 01:49:27;;;;;;;18.90;5.77;;;8.30;99.90;;;;;;5068500;28;20176;-86
2022/02/08 01:51:55;;;;;;;16.37;5.53;;;8.20;99.90;;;;;;5062840;28;20176;-85
2022/02/08 01:54:24;;;;;;;12.30;5.20;;;8.20;99.90;;;;;;5059681;28;20229;-85
2022/02/08 01:56:55;;;;;;;13.50;4.73;;;8.20;99.90;;;;;;5057765;28;20204;-85
2022/02/08 01:59:24;;;;;;;25.47;5.07;;;8.20;99.90;;;;;;5058111;28;20192;-86
2022/02/08 02:01:49;;;;;;;15.90;5.13;;;8.10;99.90;;;;;;5065211;28;20241;-86
2022/02/08 02:04:15;;;;;;;15.57;4.63;;;8.00;99.90;;;;;;5070634;28;20704;-85
2022/02/08 02:06:41;;;;;;;13.23;5.50;;;8.10;99.90;;;;;;5061356;28;20239;-88
2022/02/08 02:09:07;;;;;;;13.93;4.90;;;8.10;99.90;;;;;;5058016;28;20169;-87
2022/02/08 02:11:33;;;;;;;14.10;5.40;;;8.00;99.90;;;;;;5056240;28;20199;-85
2022/02/08 02:13:59;;;;;;;20.23;5.10;;;8.00;99.90;;;;;;5055122;28;20176;-86
2022/02/08 02:16:41;;;;;;;19.27;5.70;;;8.00;99.90;;;;;;5054732;28;20197;-85
2022/02/08 02:19:07;;;;;;;17.30;5.13;;;8.00;99.90;;;;;;5055676;28;20172;-86
2022/02/08 02:21:33;;;;;;;16.30;5.27;;;8.00;99.90;;;;;;5064395;28;20176;-85
2022/02/08 02:23:58;;;;;;;18.07;5.93;;;8.00;99.90;;;;;;5064964;28;20200;-85
2022/02/08 02:26:24;;;;;;;18.67;5.50;;;8.00;99.90;;;;;;5068735;28;20184;-84
2022/02/08 02:28:50;;;;;;;15.10;5.57;;;8.10;99.90;;;;;;5067270;28;20169;-86
2022/02/08 02:31:19;;;;;;;15.60;5.43;;;8.10;99.90;;;;;;5056301;28;20534;-85
2022/02/08 02:33:45;;;;;;;11.63;5.27;;;8.10;99.90;;;;;;5056459;28;20205;-88
2022/02/08 02:36:12;;;;;;;12.37;5.37;;;8.10;99.90;;;;;;5056291;28;20216;-87
2022/02/08 02:38:40;;;;;;;16.67;5.67;;;8.20;99.90;;;;;;5055363;28;20173;-84
2022/02/08 02:41:06;;;;;;;22.70;7.80;;;8.10;99.90;;;;;;5062627;28;20195;-89
2022/02/08 02:43:32;;;;;;;14.53;6.10;;;8.20;99.90;;;;;;5075675;28;20183;-87
2022/02/08 02:46:00;;;;;;;16.63;5.90;;;8.30;99.90;;;;;;5065031;28;20177;-88
2022/02/08 02:48:27;;;;;;;14.60;5.80;;;8.30;99.90;;;;;;5066598;28;20165;-90
2022/02/08 02:50:54;;;;;;;17.17;6.60;;;8.40;99.90;;;;;;5058035;28;20176;-86
2022/02/08 02:53:23;;;;;;;18.80;8.03;;;8.50;99.90;;;;;;5056934;28;20180;-88
2022/02/08 02:55:49;;;;;;;19.73;5.90;;;8.40;99.90;;;;;;5057820;28;20169;-89
2022/02/08 02:58:15;;;;;;;16.43;6.07;;;8.40;99.90;;;;;;5074080;28;20197;-84
2022/02/08 03:00:48;;;;;;;17.37;6.57;;;8.60;99.90;;;;;;5056051;28;20275;-90
2022/02/08 03:03:32;;;;;;;13.17;6.03;;;8.60;99.90;;;;;;5058867;28;20192;-88
2022/02/08 03:19:04;;;;;;;19.37;6.13;;;8.50;99.90;;;;;;5061581;28;20238;-85
2022/02/08 03:21:30;;;;;;;15.40;6.17;;;8.60;99.90;;;;;;5042788;28;20196;-88
2022/02/08 03:23:55;;;;;;;15.57;5.97;;;8.70;99.90;;;;;;5056311;28;20318;-90
2022/02/08 03:26:21;;;;;;;15.37;6.63;;;8.90;99.90;;;;;;5056130;28;20621;-86
2022/02/08 03:28:47;;;;;;;13.60;6.20;;;8.70;99.90;;;;;;5061164;28;20244;-84
2022/02/08 03:31:12;;;;;;;16.57;7.17;;;8.50;99.90;;;;;;5062825;28;20658;-86
2022/02/08 03:33:38;;;;;;;18.03;6.93;;;8.60;99.90;;;;;;5054796;28;20315;-85
2022/02/08 03:36:04;;;;;;;16.13;7.17;;;8.80;99.90;;;;;;5055311;28;20652;-88
2022/02/08 03:38:40;;;;;;;14.23;6.73;;;8.50;99.90;;;;;;5055879;28;20187;-90
2022/02/08 03:41:08;;;;;;;19.70;7.63;;;8.70;99.90;;;;;;5055779;28;20180;-85
2022/02/08 03:43:37;;;;;;;17.37;7.40;;;8.60;99.90;;;;;;5054419;28;20392;-85
2022/02/08 03:46:07;;;;;;;16.07;7.43;;;8.50;99.90;;;;;;5056777;28;20621;-89
2022/02/08 03:48:35;;;;;;;18.20;8.10;;;8.60;99.90;;;;;;5058015;28;20172;-90
2022/02/08 03:51:11;;;;;;;22.37;8.10;;;8.50;99.90;;;;;;5057442;28;20188;-90
2022/02/08 03:53:42;;;;;;;19.13;8.23;;;8.50;99.90;;;;;;5041887;28;20176;-89
2022/02/08 03:56:10;;;;;;;15.63;7.87;;;8.50;99.90;;;;;;5061332;28;20157;-88
2022/02/08 03:58:36;;;;;;;16.83;8.30;;;8.40;99.90;;;;;;5061052;28;20192;-90
2022/02/08 04:01:30;;;;;;;17.13;8.30;;;8.40;99.90;;;;;;5076107;28;20217;-84
2022/02/08 04:04:17;;;;;;;14.63;8.40;;;8.70;99.90;;;;;;5075624;28;20216;-83
2022/02/08 04:06:36;;;;;;;15.13;8.80;;;8.50;99.90;;;;;;5070776;28;20181;-88
2022/02/08 04:09:04;;;;;;;19.27;8.73;;;8.40;99.90;;;;;;5060363;28;20622;-90
2022/02/08 04:11:36;;;;;;;16.83;8.50;;;8.50;99.90;;;;;;5055708;28;20184;-86
2022/02/08 04:14:19;;;;;;;16.10;8.37;;;8.50;99.90;;;;;;5055049;28;20222;-87
2022/02/08 04:16:45;;;;;;;19.47;10.37;;;8.50;99.90;;;;;;5056411;28;20231;-86
2022/02/08 04:19:23;;;;;;;15.00;8.57;;;8.50;99.90;;;;;;5054095;28;20169;-85
2022/02/08 04:31:28;;;;;;;15.47;9.10;;;8.50;99.90;;;;;;5054681;28;20180;-89
2022/02/08 04:33:16;;;;;;;13.63;8.70;;;8.50;99.90;;;;;;5056184;28;20723;-87
2022/02/08 04:36:00;;;;;;;13.80;7.80;;;8.50;99.90;;;;;;5054935;28;20169;-89
2022/02/08 04:41:06;;;;;;;13.83;8.23;;;8.70;99.90;;;;;;5061092;28;20183;-88
2022/02/08 04:43:43;;;;;;;16.13;8.07;;;8.90;99.90;;;;;;5058921;28;20177;-86
2022/02/08 04:51:18;;;;;;;13.77;8.07;;;8.80;99.90;;;;;;5063179;28;20154;-89
2022/02/08 04:53:52;;;;;;;18.10;7.97;;;9.00;99.90;;;;;;5069650;28;20180;-89
2022/02/08 04:59:10;;;;;;;12.20;7.70;;;8.90;99.90;;;;;;5060853;28;20218;-91
2022/02/08 05:43:23;;;;;;;10.53;7.63;;;9.10;99.90;;;;;;5058702;28;20249;-86
2022/02/08 05:47:47;;;;;;;10.37;7.80;;;9.20;99.90;;;;;;5058721;28;20177;-84
2022/02/08 05:55:27;;;;;;;21.10;10.13;;;9.30;99.90;;;;;;5069354;28;20176;-85
2022/02/08 05:57:53;;;;;;;13.70;8.87;;;9.30;99.90;;;;;;5058693;28;20212;-85
2022/02/08 06:00:25;;;;;;;13.37;8.83;;;9.30;99.90;;;;;;5058162;28;20636;-88
2022/02/08 06:02:51;;;;;;;14.67;9.67;;;9.20;99.90;;;;;;5057052;28;20165;-87
2022/02/08 06:05:20;;;;;;;15.07;9.20;;;9.20;99.90;;;;;;5057030;28;20172;-86
2022/02/08 06:07:46;;;;;;;13.40;10.13;;;9.20;99.90;;;;;;5057539;28;20196;-84
2022/02/08 06:10:13;;;;;;;16.90;10.33;;;9.20;99.90;;;;;;5057665;28;20165;-86
2022/02/08 06:12:43;;;;;;;16.93;11.23;;;9.30;99.90;;;;;;5056849;28;20185;-86
2022/02/08 06:15:11;;;;;;;16.03;10.90;;;9.30;99.90;;;;;;5071365;28;20232;-88
2022/02/08 06:17:37;;;;;;;17.87;11.07;;;9.30;99.90;;;;;;5069095;28;20236;-84
2022/02/08 06:20:06;;;;;;;15.17;10.27;;;9.30;99.90;;;;;;5060904;28;20181;-87
2022/02/08 06:22:32;;;;;;;18.53;10.73;;;9.30;99.90;;;;;;5059882;28;20197;-88
2022/02/08 06:24:58;;;;;;;15.37;10.87;;;9.30;99.90;;;;;;5059423;28;20560;-89
2022/02/08 06:27:29;;;;;;;17.97;11.30;;;9.30;99.90;;;;;;5056856;28;20185;-90
2022/02/08 06:29:56;;;;;;;17.87;11.30;;;9.20;99.90;;;;;;5057050;28;20184;-89
2022/02/08 06:32:22;;;;;;;18.17;11.03;;;9.20;99.90;;;;;;5058687;28;20181;-88
2022/02/08 06:34:48;;;;;;;13.63;10.33;;;9.20;99.90;;;;;;5062411;28;20309;-86
2022/02/08 06:37:16;;;;;;;13.53;10.10;;;9.30;99.90;;;;;;5056243;28;20279;-86
2022/02/08 06:39:42;;;;;;;16.33;10.53;;;9.30;99.90;;;;;;5056702;28;20168;-87
2022/02/08 06:42:09;;;;;;;18.53;9.80;;;9.20;99.90;;;;;;5055020;28;20261;-83
2022/02/08 06:44:35;;;;;;;19.03;10.70;;;9.10;99.90;;;;;;5057342;28;20177;-89
2022/02/08 06:47:01;;;;;;;19.17;10.50;;;9.20;99.90;;;;;;5059713;28;20629;-87
2022/02/08 06:49:27;;;;;;;19.17;11.30;;;9.10;99.90;;;;;;5072081;28;20157;-85
2022/02/08 06:51:54;;;;;;;16.07;10.00;;;9.10;99.90;;;;;;5072692;28;20242;-85
2022/02/08 06:54:19;;;;;;;16.00;9.87;;;9.10;99.90;;;;;;5075342;28;20184;-86
2022/02/08 06:56:48;;;;;;;11.33;9.33;;;9.40;99.90;;;;;;5073701;28;20213;-85
2022/02/08 06:59:18;;;;;;;16.67;9.77;;;9.20;99.90;;;;;;5073350;28;20181;-85
2022/02/08 07:01:51;;;;;;;12.73;9.13;;;9.30;99.90;;;;;;5066292;28;20181;-87
2022/02/08 07:04:20;;;;;;;12.80;8.87;;;9.30;99.90;;;;;;5056801;28;20273;-87
2022/02/08 07:06:46;;;;;;;14.37;9.10;;;9.40;99.90;;;;;;5044408;28;20174;-86
2022/02/08 07:09:12;;;;;;;13.70;9.00;;;9.40;99.90;;;;;;5055643;28;20260;-85
2022/02/08 07:11:39;;;;;;;11.40;8.33;;;9.30;99.90;;;;;;5057039;28;20153;-87
2022/02/08 07:14:06;;;;;;;14.23;7.83;;;9.30;99.90;;;;;;5056564;28;20534;-88
2022/02/08 07:16:35;;;;;;;12.77;8.20;;;9.40;99.90;;;;;;5056422;28;20200;-87
2022/02/08 07:19:02;;;;;;;13.20;7.67;;;9.40;99.90;;;;;;5056807;28;20208;-87
2022/02/08 07:21:29;;;;;;;8.57;6.90;;;9.50;99.90;;;;;;5057647;28;20173;-89
2022/02/08 07:24:01;;;;;;;11.77;7.30;;;9.50;99.90;;;;;;5058446;28;20200;-89
2022/02/08 07:26:27;;;;;;;10.73;6.90;;;9.50;99.90;;;;;;5060867;28;20238;-86
2022/02/08 07:28:53;;;;;;;8.47;6.27;;;9.40;99.90;;;;;;5058737;28;20228;-87
2022/02/08 07:31:25;;;;;;;8.43;6.37;;;9.50;99.90;;;;;;5057585;28;20184;-88
2022/02/08 07:34:00;;;;;;;10.40;6.50;;;9.50;99.90;;;;;;5055347;28;20201;-85
2022/02/08 07:36:42;;;;;;;11.23;6.73;;;9.50;99.90;;;;;;5054553;28;20283;-85
2022/02/08 07:39:11;;;;;;;10.23;6.83;;;9.60;99.90;;;;;;5054410;28;20183;-86
2022/02/08 07:41:40;;;;;;;11.10;6.20;;;9.70;99.90;;;;;;5055452;28;20616;-86
2022/02/08 07:44:23;;;;;;;10.50;5.80;;;9.60;99.90;;;;;;5057692;28;20532;-89
2022/02/08 07:46:49;;;;;;;9.03;6.00;;;9.70;99.90;;;;;;5069154;28;20173;-87
2022/02/08 07:49:17;;;;;;;10.43;6.20;;;9.60;99.90;;;;;;5058349;28;20264;-85
2022/02/08 07:51:43;;;;;;;11.37;6.30;;;9.80;99.90;;;;;;5056464;28;20168;-86
2022/02/08 07:54:09;;;;;;;11.47;6.73;;;9.80;99.90;;;;;;5056357;28;20180;-87
2022/02/08 07:56:35;;;;;;;10.93;6.53;;;9.70;99.90;;;;;;5056062;28;20192;-87
2022/02/08 07:59:01;;;;;;;10.33;6.30;;;9.80;99.90;;;;;;5057022;28;20207;-86
2022/02/08 08:01:27;;;;;;;9.93;5.67;;;9.70;99.90;;;;;;5056601;28;20275;-87
2022/02/08 08:03:52;;;;;;;10.87;6.07;;;9.70;99.90;;;;;;5060855;28;20668;-86
2022/02/08 08:06:19;;;;;;;10.13;6.27;;;9.80;99.90;;;;;;5062435;28;20181;-85
2022/02/08 08:08:46;;;;;;;13.47;6.47;;;9.70;99.90;;;;;;5069497;28;20169;-86
2022/02/08 08:11:20;;;;;;;7.60;5.73;;;9.80;99.90;;;;;;5073908;28;20184;-87
2022/02/08 08:19:36;;;;;;;8.97;5.47;;;9.90;99.90;;;;;;5061256;28;20271;-86
2022/02/08 08:21:50;;;;;;;13.90;5.73;;;9.90;99.90;;;;;;5060090;28;20175;-86
2022/02/08 08:24:16;;;;;;;8.47;4.93;;;9.80;99.90;;;;;;5059308;28;20199;-87
2022/02/08 08:26:46;;;;;;;7.17;5.47;;;9.90;99.90;;;;;;5059231;28;20541;-87
2022/02/08 08:29:14;;;;;;;10.50;5.20;;;10.00;99.90;;;;;;5066158;28;20184;-86
2022/02/08 08:31:41;;;;;;;8.20;4.93;;;9.90;99.90;;;;;;5070770;28;20568;-88
2022/02/08 08:34:06;;;;;;;9.10;5.63;;;10.00;99.90;;;;;;5065481;28;20254;-87
2022/02/08 08:36:32;;;;;;;12.70;5.93;;;10.00;99.90;;;;;;5060452;28;20590;-87
2022/02/08 08:38:58;;;;;;;7.67;5.20;;;10.00;99.90;;;;;;5060043;28;20168;-89
2022/02/08 08:51:47;;;;;;;9.23;5.37;;;10.10;99.90;;;;;;5061164;28;20173;-87
2022/02/08 08:54:13;;;;;;;12.87;5.47;;;10.10;99.90;;;;;;5059614;28;20173;-88
2022/02/08 08:56:42;;;;;;;9.87;4.70;;;10.10;99.90;;;;;;5041196;28;20218;-88
2022/02/08 08:59:09;;;;;;;7.43;4.80;;;10.10;99.90;;;;;;5059200;28;20227;-89
2022/02/08 09:01:35;;;;;;;10.80;5.50;;;10.10;99.90;;;;;;5059144;28;20246;-88
2022/02/08 09:04:01;;;;;;;7.33;4.00;;;10.20;99.90;;;;;;5060880;28;20264;-87
2022/02/08 09:06:27;;;;;;;7.73;4.20;;;10.30;99.90;;;;;;5059566;28;20184;-87
2022/02/08 09:08:54;;;;;;;7.60;4.40;;;10.30;99.90;;;;;;5060857;28;20191;-90
2022/02/08 09:14:01;;;;;;;7.27;4.03;;;10.40;99.90;;;;;;5055020;28;20268;-89
2022/02/08 09:16:44;;;;;;;7.40;4.10;;;10.40;99.90;;;;;;5047314;28;20205;-87
2022/02/08 09:25:19;;;;;;;8.57;3.87;;;10.50;99.90;;;;;;5041364;28;20220;-88
2022/02/08 09:29:55;;;;;;;7.83;3.37;;;10.60;99.90;;;;;;5044086;28;20295;-89
2022/02/08 09:32:44;;;;;;;8.17;3.33;;;10.70;99.90;;;;;;5043438;28;20269;-89
2022/02/08 09:35:14;;;;;;;7.33;2.90;;;10.70;99.90;;;;;;5041962;28;20564;-87
2022/02/08 09:37:40;;;;;;;5.50;2.17;;;10.60;99.90;;;;;;5044658;28;20205;-87
2022/02/08 09:40:09;;;;;;;7.30;2.20;;;10.70;99.90;;;;;;5039618;28;20177;-87
2022/02/08 09:42:39;;;;;;;3.73;1.80;;;10.70;99.90;;;;;;5038938;28;20182;-84
2022/02/08 09:45:22;;;;;;;7.63;2.50;;;10.80;99.90;;;;;;5055535;28;20176;-85
2022/02/08 09:47:57;;;;;;;6.57;2.20;;;10.70;99.90;;;;;;5058641;28;20227;-87
2022/02/08 09:50:29;;;;;;;5.47;2.10;;;10.80;99.90;;;;;;5060704;28;20177;-87
2022/02/08 09:52:59;;;;;;;4.80;2.20;;;10.90;99.90;;;;;;5067269;28;20200;-86
2022/02/08 09:55:28;;;;;;;4.07;1.77;;;10.90;99.90;;;;;;5073197;28;20180;-86
2022/02/08 09:57:54;;;;;;;6.53;2.00;;;10.90;99.80;;;;;;5070571;28;20224;-85
2022/02/08 10:00:24;;;;;;;4.77;2.00;;;10.90;99.90;;;;;;5072079;28;20240;-86
2022/02/08 10:02:50;;;;;;;7.80;2.03;;;11.00;99.70;;;;;;5067968;28;20173;-88
2022/02/08 10:05:16;;;;;;;6.63;2.30;;;11.00;99.50;;;;;;5069063;28;20185;-89
2022/02/08 10:07:43;;;;;;;6.23;2.40;;;10.80;99.90;;;;;;5078285;28;20200;-87
2022/02/08 10:10:22;;;;;;;8.43;2.13;;;10.80;99.90;;;;;;5061198;28;20184;-89
2022/02/08 10:23:58;;;;;;;5.57;1.83;;;10.90;98.60;;;;;;5041065;28;20567;-85
2022/02/08 10:26:36;;;;;;;4.33;2.00;;;11.00;98.20;;;;;;5042008;28;20215;-86
2022/02/08 10:37:48;;;;;;;6.20;2.10;;;11.10;98.60;;;;;;5067484;28;20263;-89
2022/02/08 10:40:10;;;;;;;5.07;2.30;;;11.00;98.50;;;;;;5038571;28;20166;-89
2022/02/08 10:42:39;;;;;;;7.73;2.40;;;10.90;98.90;;;;;;5038876;28;20173;-86
2022/02/08 10:45:23;;;;;;;6.97;2.20;;;10.90;99.40;;;;;;5051186;28;20184;-87
2022/02/08 10:48:08;;;;;;;7.73;1.90;;;11.10;99.00;;;;;;5075093;28;20192;-89
2022/02/08 10:50:46;;;;;;;10.77;2.73;;;11.00;98.50;;;;;;5065655;28;20202;-87
2022/02/08 10:53:13;;;;;;;7.63;2.10;;;11.10;98.80;;;;;;5060555;28;20177;-88
2022/02/08 10:58:25;;;;;;;7.70;3.07;;;11.10;98.30;;;;;;5064785;28;20270;-88
2022/02/08 11:01:17;;;;;;;5.03;1.97;;;11.10;98.60;;;;;;5069002;28;20215;-86
2022/02/08 11:04:07;;;;;;;6.93;2.83;;;11.20;98.90;;;;;;5069282;28;20195;-88
2022/02/08 11:06:44;;;;;;;7.93;2.53;;;11.30;99.00;;;;;;5068955;28;20177;-86
2022/02/08 11:09:26;;;;;;;5.60;2.17;;;11.20;99.40;;;;;;5060654;28;20165;-88
2022/02/08 11:12:09;;;;;;;4.90;2.40;;;11.30;99.50;;;;;;5059077;28;20195;-87
2022/02/08 11:15:01;;;;;;;8.10;2.57;;;11.20;99.90;;;;;;5059119;28;20172;-89
2022/02/08 11:20:20;;;;;;;5.93;3.73;;;10.90;99.90;;;;;;5059996;28;20252;-89
2022/02/08 11:23:05;;;;;;;9.10;3.60;;;10.80;99.90;;;;;;5057028;28;20763;-89
2022/02/08 11:25:40;;;;;;;8.33;3.70;;;10.70;99.90;;;;;;5058366;28;20173;-88
2022/02/08 11:28:14;;;;;;;7.60;3.73;;;10.70;99.90;;;;;;5056846;28;20260;-88
2022/02/08 11:30:53;;;;;;;6.33;3.10;;;10.80;99.90;;;;;;5059588;28;20196;-88
2022/02/08 11:44:43;;;;;;;6.33;3.70;;;10.90;99.90;;;;;;5069708;28;20175;-86
2022/02/08 11:47:18;;;;;;;6.27;3.80;;;10.90;99.90;;;;;;5066114;28;20181;-88
2022/02/08 11:52:56;;;;;;;5.43;3.13;;;10.80;99.90;;;;;;5065654;28;20176;-88
2022/02/08 11:55:41;;;;;;;5.80;2.50;;;10.70;99.90;;;;;;5063363;28;20195;-88
2022/02/08 11:58:32;;;;;;;7.77;2.90;;;10.70;99.90;;;;;;5065986;28;20247;-88
2022/02/08 12:01:05;;;;;;;3.07;2.20;;;10.80;99.90;;;;;;5063980;28;20161;-89
2022/02/08 12:04:04;;;;;;;4.47;2.33;;;10.80;99.90;;;;;;5063485;28;20177;-92
2022/02/08 12:06:50;;;;;;;4.00;2.33;;;10.80;99.90;;;;;;5066727;28;20192;-90
2022/02/08 12:09:23;;;;;;;4.37;2.33;;;10.80;99.90;;;;;;5055871;28;20283;-89
2022/02/08 12:29:11;;;;;;;6.40;3.53;;;11.10;99.90;;;;;;5062577;28;20176;-89
2022/02/08 12:58:58;;;;;;;6.60;2.80;;;11.50;99.90;;;;;;5042238;28;20288;-90
2022/02/08 13:04:16;;;;;;;6.37;2.80;;;11.70;99.90;;;;;;5041694;28;20669;-90
2022/02/08 14:06:55;;;;;;;3.53;1.37;;;11.90;94.30;;;;;;5021647;28;20198;-91
2022/02/08 14:19:51;;;;;;;2.63;0.97;;;11.90;94.90;;;;;;5030253;28;20204;-92
2022/02/08 14:30:23;;;;;;;6.33;2.30;;;11.80;96.60;;;;;;5021960;28;20228;-88
2022/02/08 14:33:09;;;;;;;5.50;2.30;;;11.70;96.70;;;;;;5022674;28;20202;-90
2022/02/08 15:00:37;;;;;;;6.27;1.60;;;11.20;99.90;;;;;;5016792;28;20197;-88
2022/02/08 15:09:17;;;;;;;6.33;2.27;;;11.20;99.70;;;;;;5013894;28;20338;-90
2022/02/08 15:11:59;;;;;;;5.90;2.20;;;11.30;99.50;;;;;;5019742;28;20258;-91
2022/02/08 15:14:27;;;;;;;7.47;2.37;;;11.30;99.30;;;;;;5030611;28;20171;-91
2022/02/08 15:16:54;;;;;;;5.47;1.97;;;11.30;99.20;;;;;;5030197;28;20245;-90
2022/02/08 15:19:20;;;;;;;5.83;2.00;;;11.40;98.70;;;;;;5028620;28;20166;-88
2022/02/08 15:21:47;;;;;;;5.10;1.90;;;11.40;98.50;;;;;;5025153;28;20175;-92
2022/02/08 15:24:14;;;;;;;6.43;2.33;;;11.30;98.20;;;;;;5024438;28;20202;-88
2022/02/08 15:26:46;;;;;;;4.80;2.30;;;11.30;98.70;;;;;;5027236;28;20520;-89
2022/02/08 15:29:12;;;;;;;6.60;1.93;;;11.40;98.70;;;;;;5021105;28;20178;-90
2022/02/08 15:31:40;;;;;;;6.53;2.20;;;11.50;98.10;;;;;;5019289;28;20185;-92
2022/02/08 15:34:06;;;;;;;6.23;1.93;;;11.50;97.50;;;;;;5016538;28;20193;-90
2022/02/08 15:36:33;;;;;;;3.53;1.80;;;11.60;97.10;;;;;;5015655;28;20201;-90
2022/02/08 15:39:07;;;;;;;3.53;1.67;;;11.80;96.30;;;;;;5016885;28;20213;-89
2022/02/08 15:41:38;;;;;;;6.67;2.10;;;11.50;95.90;;;;;;5022230;28;20185;-90
2022/02/08 15:44:17;;;;;;;5.90;1.97;;;11.50;96.40;;;;;;5020640;28;20185;-89
2022/02/08 15:46:45;;;;;;;4.43;1.83;;;11.60;96.30;;;;;;5010294;28;20193;-90
2022/02/08 15:49:14;;;;;;;6.37;2.00;;;11.50;96.00;;;;;;5018927;28;20205;-91
2022/02/08 15:51:45;;;;;;;7.13;2.13;;;11.60;95.20;;;;;;5022749;28;20174;-92
2022/02/08 16:05:20;;;;;;;7.33;2.30;;;11.60;93.50;;;;;;5017825;28;20185;-88
2022/02/08 16:07:57;;;;;;;6.93;2.20;;;11.50;94.50;;;;;;5016141;28;20170;-86
2022/02/08 16:10:49;;;;;;;5.63;2.40;;;11.60;94.10;;;;;;5016121;28;20185;-89
2022/02/08 16:13:34;;;;;;;4.57;1.73;;;11.50;94.30;;;;;;5007867;28;20209;-86
2022/02/08 16:18:51;;;;;;;6.70;1.77;;;11.40;94.20;;;;;;5022719;28;20265;-87
2022/02/08 16:21:39;;;;;;;4.83;1.97;;;11.30;94.90;;;;;;5020916;28;20621;-86
2022/02/08 16:27:16;;;;;;;5.47;2.40;;;11.50;95.00;;;;;;5024796;28;20213;-88
2022/02/08 16:46:18;;;;;;;4.27;1.50;;;11.30;94.10;;;;;;5034176;28;20174;-89
2022/02/08 16:54:27;;;;;;;6.60;1.50;;;11.10;95.30;;;;;;5021940;28;20229;-90
2022/02/08 16:59:33;;;;;;;5.43;2.37;;;11.50;94.10;;;;;;5021713;28;20257;-89
2022/02/08 17:02:02;;;;;;;6.53;2.20;;;11.40;92.80;;;;;;5020349;28;20185;-91
2022/02/08 17:04:32;;;;;;;7.23;2.00;;;11.30;93.50;;;;;;5035055;28;20173;-90
2022/02/08 17:07:04;;;;;;;4.17;1.70;;;11.30;93.20;;;;;;5026084;28;20170;-89
2022/02/08 17:09:44;;;;;;;5.87;1.93;;;11.30;93.30;;;;;;5023563;28;20186;-91
2022/02/08 17:12:23;;;;;;;5.10;1.80;;;11.40;93.20;;;;;;5031659;28;20180;-89
2022/02/08 17:38:26;;;;;;;5.47;1.70;;;11.30;95.70;;;;;;5034499;28;20225;-87
2022/02/08 17:47:43;;;;;;;5.50;1.70;;;11.30;95.60;;;;;;5024525;28;20174;-90
2022/02/08 17:50:15;;;;;;;5.67;2.13;;;11.20;96.30;;;;;;5033625;28;20166;-91
2022/02/08 17:52:43;;;;;;;5.73;2.10;;;11.10;96.70;;;;;;5033117;28;20178;-88
2022/02/08 17:55:10;;;;;;;7.07;2.17;;;11.10;97.30;;;;;;5021586;28;20607;-88
2022/02/08 17:57:37;;;;;;;6.17;2.40;;;11.10;97.00;;;;;;5019313;28;20201;-85
2022/02/08 18:00:32;;;;;;;4.53;2.17;;;11.10;97.30;;;;;;5019231;28;20186;-88
2022/02/08 18:03:02;;;;;;;5.77;2.90;;;11.20;97.40;;;;;;5019013;28;20178;-87
2022/02/08 18:05:28;;;;;;;5.90;2.20;;;11.30;97.20;;;;;;5018065;28;20182;-87
2022/02/08 18:08:02;;;;;;;4.27;2.70;;;11.30;97.40;;;;;;5019684;28;20162;-88
2022/02/08 18:10:29;;;;;;;4.20;2.10;;;11.20;97.80;;;;;;5026168;28;20175;-88
2022/02/08 18:12:57;;;;;;;5.33;2.10;;;11.30;98.50;;;;;;5020852;28;20268;-86
2022/02/08 18:15:25;;;;;;;4.90;2.07;;;11.20;98.50;;;;;;5021233;28;20182;-85
2022/02/08 18:17:55;;;;;;;6.13;2.37;;;11.00;99.00;;;;;;5040508;28;20218;-90
2022/02/08 18:20:45;;;;;;;4.57;2.50;;;11.00;99.90;;;;;;5035687;28;20159;-87
2022/02/08 18:23:37;;;;;;;6.53;2.70;;;11.10;99.60;;;;;;5019470;28;20208;-87
2022/02/08 18:27:21;;;;;;;5.30;2.70;;;11.20;99.30;;;;;;5017860;28;20244;-88
2022/02/08 19:07:21;;;;;;;5.03;2.17;;;11.00;97.50;;;;;;5018990;28;20236;-87
2022/02/08 19:12:30;;;;;;;3.90;1.80;;;11.10;97.50;;;;;;5017487;28;20182;-88
2022/02/08 19:17:51;;;;;;;4.03;1.80;;;11.00;97.70;;;;;;5016847;28;20692;-86
2022/02/08 19:22:53;;;;;;;5.27;2.87;;;10.90;98.30;;;;;;5017920;28;20210;-87
2022/02/08 19:25:22;;;;;;;4.47;2.50;;;10.90;98.60;;;;;;5014502;28;20177;-87
2022/02/08 19:27:50;;;;;;;5.17;2.30;;;10.90;98.80;;;;;;5018819;28;20206;-89
2022/02/08 19:30:19;;;;;;;4.10;2.60;;;10.80;98.90;;;;;;5016399;28;20202;-89
2022/02/08 19:32:45;;;;;;;4.43;2.57;;;10.80;99.20;;;;;;5021019;28;20273;-88
2022/02/08 19:35:14;;;;;;;6.27;2.87;;;11.00;99.20;;;;;;5020975;28;20178;-89
2022/02/08 19:37:40;;;;;;;4.93;2.80;;;10.90;98.60;;;;;;5021446;28;20674;-87
2022/02/08 19:40:07;;;;;;;3.53;2.63;;;10.80;98.90;;;;;;5018903;28;20201;-88
2022/02/08 19:42:34;;;;;;;3.50;2.40;;;10.90;98.80;;;;;;5018361;28;20246;-89
2022/02/08 19:45:09;;;;;;;5.87;2.30;;;10.90;98.40;;;;;;5016390;28;20200;-86
2022/02/08 19:47:35;;;;;;;3.70;2.10;;;11.00;97.70;;;;;;5017585;28;20177;-87
2022/02/08 19:50:01;;;;;;;6.03;2.63;;;10.90;98.10;;;;;;5018132;28;20929;-86
2022/02/08 19:52:28;;;;;;;3.93;2.33;;;11.00;97.90;;;;;;5020159;28;20325;-86
2022/02/08 19:57:40;;;;;;;3.73;1.80;;;10.90;98.20;;;;;;5005061;28;20218;-86
2022/02/08 20:00:10;;;;;;;3.10;2.07;;;10.80;99.10;;;;;;5018037;28;20733;-85
2022/02/08 20:02:42;;;;;;;3.27;1.90;;;10.80;99.30;;;;;;5017122;28;20182;-86
2022/02/08 20:05:11;;;;;;;3.90;1.50;;;11.00;99.40;;;;;;5014808;28;20236;-88
2022/02/08 20:07:37;;;;;;;3.00;1.77;;;10.90;99.20;;;;;;5016996;28;20186;-88
2022/02/08 20:10:03;;;;;;;3.00;1.53;;;10.90;99.10;;;;;;5017972;28;20228;-87
2022/02/08 20:12:29;;;;;;;4.23;1.80;;;10.90;99.30;;;;;;5020011;28;20213;-87
2022/02/08 20:14:55;;;;;;;2.43;1.40;;;10.90;99.40;;;;;;5023047;28;20185;-87
2022/02/08 20:17:22;;;;;;;3.47;1.47;;;10.90;99.90;;;;;;5044538;28;20268;-87